Sugar Grove, Ohio
Current Conditions -  °F | °C
As of 4:53 AM on Saturday 01 Nov 2014 (Local Time) from KLHQ Reporting Station
Overcast Overcast  
Wind Chill: 32°   Ceiling: 1000
Heat Index: 39°   Visibility: 10mi
Dew Point: 36°   Wind: 10mph
Humidity: 89%   Direction: 330°NNW
Pressure: 29.95"   Gusts: 20mph
Location:  39.63°N, 82.55°W
Report Text: KLHQ 010853Z AUTO 33009G17KT 10SM OVC010 04/02 A2995 RMK AO2 RAE35 SLP146 P0001 60002 T00390022 51009
Loading
Personal Weather Stations






























Interactive Weather Map
Tropical Storm Tracking
New forecast layout! Learn more

10-Day Weather Forecast

Advertisements
Track Severe Weather on mobile